Time;durP1;ratioP1;P1;durP2;ratioP2;P2;SDS_P1;SDS_P2;PMS_P1;PMS_P2;Temp;Humidity;BMP_temperature;BMP_pressure;BME280_temperature;BME280_humidity;BME280_pressure;Samples;Min_cycle;Max_cycle;Signal;HPM_P1;HPM_P2
2022/12/19 00:01:57;;;;;;;80.17;22.20;;;-9.30;99.90;;;;;;5043585;27;20746;-69
2022/12/19 00:04:45;;;;;;;67.77;21.30;;;-9.30;99.90;;;;;;5035272;27;21061;-70
2022/12/19 00:07:33;;;;;;;94.63;25.07;;;-9.40;99.90;;;;;;5040865;27;20631;-69
2022/12/19 00:10:21;;;;;;;90.80;23.77;;;-9.40;99.90;;;;;;5032527;28;20623;-69
2022/12/19 00:13:09;;;;;;;108.50;28.63;;;-9.40;99.90;;;;;;5040581;28;20703;-69
2022/12/19 00:16:00;;;;;;;80.63;24.90;;;-9.50;99.90;;;;;;5038590;27;20618;-69
2022/12/19 00:18:47;;;;;;;71.00;20.77;;;-9.50;99.90;;;;;;5039299;27;20700;-69
2022/12/19 00:21:34;;;;;;;58.57;17.40;;;-9.50;99.90;;;;;;5036889;27;20652;-68
2022/12/19 00:24:23;;;;;;;58.03;17.97;;;-9.50;99.90;;;;;;5040587;27;20695;-69
2022/12/19 00:27:10;;;;;;;67.33;18.97;;;-9.50;99.90;;;;;;5042277;27;21337;-69
2022/12/19 00:29:57;;;;;;;62.47;18.20;;;-9.50;99.90;;;;;;5049571;27;20627;-69
2022/12/19 00:32:44;;;;;;;55.47;16.53;;;-9.60;99.90;;;;;;5046658;27;20643;-69
2022/12/19 00:35:32;;;;;;;66.20;19.60;;;-9.50;99.90;;;;;;5048864;27;21176;-68
2022/12/19 00:38:19;;;;;;;71.17;21.50;;;-9.40;99.90;;;;;;5046302;27;20672;-70
2022/12/19 00:41:08;;;;;;;80.43;20.73;;;-9.40;99.90;;;;;;5058386;27;21292;-69
2022/12/19 00:43:56;;;;;;;79.60;21.63;;;-9.40;99.90;;;;;;5067584;27;20724;-70
2022/12/19 00:46:43;;;;;;;60.87;16.67;;;-9.30;99.90;;;;;;5046298;27;20647;-69
2022/12/19 00:49:30;;;;;;;68.60;20.40;;;-9.30;99.90;;;;;;5050205;27;20682;-69
2022/12/19 00:52:17;;;;;;;68.73;20.13;;;-9.30;99.90;;;;;;5051695;27;21210;-69
2022/12/19 00:55:05;;;;;;;77.03;20.43;;;-9.30;99.90;;;;;;5051401;27;20731;-69
2022/12/19 00:57:54;;;;;;;58.43;18.80;;;-9.30;99.90;;;;;;5036090;27;21039;-69
2022/12/19 01:00:41;;;;;;;52.80;16.20;;;-9.30;99.90;;;;;;5043824;27;21090;-69
2022/12/19 01:03:28;;;;;;;55.10;17.30;;;-9.40;99.90;;;;;;5041655;27;20648;-69
2022/12/19 01:06:15;;;;;;;55.83;16.77;;;-9.30;99.90;;;;;;5057090;27;20623;-69
2022/12/19 01:09:02;;;;;;;67.90;20.30;;;-9.40;99.90;;;;;;5048704;27;20703;-69
2022/12/19 01:14:56;;;;;;;64.10;17.60;;;-9.40;99.90;;;;;;5041296;27;20657;-69
2022/12/19 01:17:43;;;;;;;54.57;18.07;;;-9.50;99.90;;;;;;5058526;27;20603;-69
2022/12/19 01:20:30;;;;;;;69.43;19.27;;;-9.60;99.90;;;;;;5042539;27;21209;-69
2022/12/19 01:23:17;;;;;;;58.43;18.00;;;-9.60;99.90;;;;;;5050826;27;20619;-68
2022/12/19 01:26:05;;;;;;;65.43;18.57;;;-9.60;99.90;;;;;;5041025;27;20655;-69
2022/12/19 01:28:52;;;;;;;66.07;18.40;;;-9.50;99.90;;;;;;5046720;27;20665;-69
2022/12/19 01:31:41;;;;;;;55.67;17.53;;;-9.50;99.90;;;;;;5041435;27;20718;-70
2022/12/19 01:34:28;;;;;;;48.93;17.13;;;-9.40;99.90;;;;;;5029648;27;20663;-69
2022/12/19 01:37:15;;;;;;;51.27;16.53;;;-9.40;99.90;;;;;;5047778;27;21128;-69
2022/12/19 01:40:02;;;;;;;51.07;16.13;;;-9.40;99.90;;;;;;5043649;27;20612;-69
2022/12/19 01:42:49;;;;;;;55.53;16.70;;;-9.40;99.90;;;;;;5044877;27;20666;-69
2022/12/19 01:45:37;;;;;;;71.57;18.33;;;-9.50;99.90;;;;;;5038537;27;20654;-70
2022/12/19 01:48:28;;;;;;;49.30;15.90;;;-9.50;99.90;;;;;;5046416;27;20619;-69
2022/12/19 01:51:17;;;;;;;61.17;18.07;;;-9.50;99.90;;;;;;5040804;27;20643;-69
2022/12/19 01:54:06;;;;;;;54.77;18.23;;;-9.60;99.90;;;;;;5034731;27;20644;-69
2022/12/19 01:56:54;;;;;;;68.20;20.07;;;-9.60;99.90;;;;;;5040024;27;20627;-69
2022/12/19 01:59:43;;;;;;;56.47;16.80;;;-9.60;99.90;;;;;;5036598;27;20985;-69
2022/12/19 02:02:32;;;;;;;57.43;17.60;;;-9.70;99.90;;;;;;5041380;27;21188;-69
2022/12/19 02:05:21;;;;;;;59.87;17.43;;;-9.60;99.90;;;;;;5062867;27;20633;-69
2022/12/19 02:08:08;;;;;;;57.50;16.80;;;-9.60;99.90;;;;;;5038079;27;20628;-69
2022/12/19 02:10:55;;;;;;;50.77;15.97;;;-9.60;99.90;;;;;;5057052;27;21153;-69
2022/12/19 02:13:43;;;;;;;54.83;16.57;;;-9.60;99.90;;;;;;5042856;27;20631;-70
2022/12/19 02:16:37;;;;;;;54.33;15.47;;;-9.60;99.90;;;;;;5043584;27;20623;-69
2022/12/19 02:20:02;;;;;;;54.33;16.70;;;-9.60;99.90;;;;;;5052701;27;20649;-69
2022/12/19 02:22:59;;;;;;;53.17;16.00;;;-9.60;99.90;;;;;;5050375;27;20703;-70
2022/12/19 02:25:57;;;;;;;52.37;15.70;;;-9.60;99.90;;;;;;5040634;27;20711;-69
2022/12/19 02:29:05;;;;;;;43.90;14.03;;;-9.60;99.90;;;;;;5038674;27;20651;-70
2022/12/19 02:31:55;;;;;;;46.40;13.63;;;-9.50;99.90;;;;;;5041847;27;21039;-69
2022/12/19 02:34:43;;;;;;;47.57;14.37;;;-9.40;99.90;;;;;;5041360;27;20978;-69
2022/12/19 02:37:32;;;;;;;57.60;15.30;;;-9.40;99.90;;;;;;5044630;27;20760;-69
2022/12/19 02:40:21;;;;;;;47.37;14.43;;;-9.30;99.90;;;;;;5041501;27;20656;-69
2022/12/19 02:43:08;;;;;;;50.10;15.00;;;-9.20;99.90;;;;;;5047843;27;20640;-67
2022/12/19 02:45:55;;;;;;;57.37;16.87;;;-9.30;99.90;;;;;;5040409;27;21239;-69
2022/12/19 02:48:44;;;;;;;55.10;16.10;;;-9.50;99.90;;;;;;5040834;27;20616;-69
2022/12/19 02:51:31;;;;;;;57.73;16.93;;;-9.60;99.90;;;;;;5050795;27;20627;-69
2022/12/19 02:54:18;;;;;;;63.57;19.97;;;-9.70;99.90;;;;;;5040246;27;20635;-69
2022/12/19 02:57:09;;;;;;;80.70;23.83;;;-9.70;99.90;;;;;;5039347;27;21107;-69
2022/12/19 03:00:00;;;;;;;69.70;22.37;;;-9.80;99.90;;;;;;5037931;27;20941;-69
2022/12/19 03:02:53;;;;;;;72.47;22.43;;;-9.90;99.90;;;;;;5044562;27;20648;-69
2022/12/19 03:05:44;;;;;;;71.10;20.50;;;-9.90;99.90;;;;;;5039681;27;20684;-69
2022/12/19 03:08:36;;;;;;;64.87;19.40;;;-10.00;99.90;;;;;;5037587;27;20695;-70
2022/12/19 03:11:23;;;;;;;73.97;23.17;;;-10.00;99.90;;;;;;5042647;27;20651;-69
2022/12/19 03:14:12;;;;;;;67.07;21.10;;;-10.00;99.90;;;;;;5047714;27;20622;-69
2022/12/19 03:17:03;;;;;;;67.57;20.60;;;-10.10;99.90;;;;;;5045330;27;21066;-69
2022/12/19 03:19:50;;;;;;;67.40;20.67;;;-10.20;99.90;;;;;;5038312;27;20612;-70
2022/12/19 03:22:39;;;;;;;77.70;20.40;;;-10.30;99.90;;;;;;5041321;27;20640;-70
2022/12/19 03:25:26;;;;;;;58.07;18.53;;;-10.30;99.90;;;;;;5055002;27;20632;-70
2022/12/19 03:28:16;;;;;;;67.87;18.20;;;-10.30;99.90;;;;;;5040113;27;20665;-69
2022/12/19 03:31:03;;;;;;;72.07;19.30;;;-10.30;99.90;;;;;;5041435;27;20721;-69
2022/12/19 03:33:52;;;;;;;62.67;18.73;;;-10.20;99.90;;;;;;5033883;27;20623;-69
2022/12/19 03:36:40;;;;;;;62.87;18.87;;;-10.20;99.90;;;;;;5050059;27;20671;-70
2022/12/19 03:39:28;;;;;;;62.23;20.17;;;-10.30;99.90;;;;;;5047722;27;20710;-69
2022/12/19 03:45:23;;;;;;;58.17;17.23;;;-10.30;99.90;;;;;;5035288;27;20642;-69
2022/12/19 03:48:11;;;;;;;59.23;17.73;;;-10.40;99.90;;;;;;5039809;27;20615;-69
2022/12/19 03:51:03;;;;;;;61.73;18.47;;;-10.50;99.90;;;;;;5038511;27;20624;-69
2022/12/19 03:53:55;;;;;;;66.20;19.63;;;-10.60;99.90;;;;;;5050559;27;20670;-69
2022/12/19 03:56:46;;;;;;;59.00;17.57;;;-10.60;99.90;;;;;;5042767;27;20643;-70
2022/12/19 03:59:36;;;;;;;62.23;19.50;;;-10.70;99.90;;;;;;5043150;27;20642;-70
2022/12/19 04:02:23;;;;;;;63.23;18.50;;;-10.70;99.90;;;;;;5023677;27;20736;-69
2022/12/19 04:05:12;;;;;;;44.23;14.73;;;-10.80;99.90;;;;;;5036136;27;21166;-70
2022/12/19 04:08:00;;;;;;;52.40;16.03;;;-10.50;99.90;;;;;;5042829;27;21859;-69
2022/12/19 04:10:49;;;;;;;54.60;16.30;;;-10.30;99.90;;;;;;5060502;27;21235;-69
2022/12/19 04:13:38;;;;;;;44.23;14.27;;;-10.30;99.90;;;;;;5052484;27;21187;-69
2022/12/19 04:16:29;;;;;;;45.23;13.00;;;-10.10;99.90;;;;;;5045311;27;20624;-69
2022/12/19 04:19:18;;;;;;;40.83;13.90;;;-10.00;99.90;;;;;;5054213;27;21132;-69
2022/12/19 04:22:07;;;;;;;49.63;14.17;;;-9.90;99.90;;;;;;5042535;27;21010;-69
2022/12/19 04:24:55;;;;;;;50.20;14.60;;;-9.80;99.90;;;;;;5039396;27;20620;-69
2022/12/19 04:27:45;;;;;;;49.03;14.30;;;-9.70;99.90;;;;;;5064863;27;20735;-70
2022/12/19 04:30:33;;;;;;;56.73;15.73;;;-9.60;99.90;;;;;;5038587;27;20616;-69
2022/12/19 04:33:21;;;;;;;46.20;15.43;;;-9.60;99.90;;;;;;5040992;27;20616;-68
2022/12/19 04:36:08;;;;;;;48.50;15.67;;;-9.60;99.90;;;;;;5048081;27;21154;-69
2022/12/19 04:38:55;;;;;;;45.40;14.93;;;-9.50;99.90;;;;;;5035127;27;20687;-70
2022/12/19 04:41:43;;;;;;;54.40;15.67;;;-9.60;99.90;;;;;;5039093;27;20706;-70
2022/12/19 04:44:30;;;;;;;50.00;16.13;;;-9.60;99.90;;;;;;5054476;27;20607;-69
2022/12/19 04:47:18;;;;;;;50.83;14.27;;;-9.70;99.90;;;;;;5042789;27;20760;-69
2022/12/19 04:50:06;;;;;;;50.80;14.83;;;-9.70;99.90;;;;;;5044070;27;20669;-69
2022/12/19 04:52:53;;;;;;;49.93;13.67;;;-9.80;99.90;;;;;;5041275;27;20720;-69
2022/12/19 04:55:41;;;;;;;50.50;15.73;;;-9.80;99.90;;;;;;5050252;27;20624;-70
2022/12/19 04:58:28;;;;;;;49.20;15.27;;;-9.90;99.90;;;;;;5054803;27;20619;-69
2022/12/19 05:01:17;;;;;;;58.23;16.87;;;-10.00;99.90;;;;;;5039716;27;20665;-70
2022/12/19 05:04:05;;;;;;;52.77;16.33;;;-10.10;99.90;;;;;;5039753;27;20676;-68
2022/12/19 05:06:53;;;;;;;56.60;17.87;;;-10.10;99.90;;;;;;5049200;27;21104;-69
2022/12/19 05:09:40;;;;;;;64.60;18.13;;;-10.10;99.90;;;;;;5042670;27;21154;-70
2022/12/19 05:12:28;;;;;;;57.80;17.63;;;-10.20;99.90;;;;;;5036826;27;20718;-69
2022/12/19 05:15:16;;;;;;;48.00;16.30;;;-10.30;99.90;;;;;;5040620;27;20639;-69
2022/12/19 05:18:03;;;;;;;66.07;17.07;;;-10.40;99.90;;;;;;5044295;27;20743;-69
2022/12/19 05:20:51;;;;;;;52.57;16.67;;;-10.40;99.90;;;;;;5050954;27;21169;-69
2022/12/19 05:23:39;;;;;;;59.30;16.67;;;-10.40;99.90;;;;;;5040554;27;20746;-70
2022/12/19 05:26:26;;;;;;;67.17;19.03;;;-10.40;99.90;;;;;;5034897;27;20751;-69
2022/12/19 05:29:13;;;;;;;59.70;17.70;;;-10.50;99.90;;;;;;5045936;27;20688;-69
2022/12/19 05:32:01;;;;;;;55.23;15.60;;;-10.60;99.90;;;;;;5047651;27;20631;-69
2022/12/19 05:34:48;;;;;;;54.47;16.43;;;-10.60;99.90;;;;;;5044053;27;20619;-70
2022/12/19 05:37:37;;;;;;;54.73;16.47;;;-10.60;99.90;;;;;;5054426;27;20648;-69
2022/12/19 05:40:24;;;;;;;54.93;16.90;;;-10.60;99.90;;;;;;5036021;27;20703;-69
2022/12/19 05:43:11;;;;;;;54.80;17.80;;;-10.60;99.90;;;;;;5041846;27;20651;-69
2022/12/19 05:45:58;;;;;;;54.57;16.43;;;-10.50;99.90;;;;;;5074686;27;20639;-69
2022/12/19 05:48:46;;;;;;;49.73;15.60;;;-10.50;99.90;;;;;;5037632;27;20628;-69
2022/12/19 05:51:33;;;;;;;53.60;15.63;;;-10.50;99.90;;;;;;5046579;27;21644;-69
2022/12/19 05:54:22;;;;;;;50.70;14.70;;;-10.40;99.90;;;;;;5038199;27;20705;-69
2022/12/19 05:57:09;;;;;;;48.73;16.07;;;-10.40;99.90;;;;;;5037862;27;20636;-69
2022/12/19 05:59:56;;;;;;;50.70;15.57;;;-10.30;99.90;;;;;;5072030;27;20736;-70
2022/12/19 06:02:43;;;;;;;57.03;17.53;;;-10.30;99.90;;;;;;5060084;27;21004;-69
2022/12/19 06:05:31;;;;;;;56.17;16.90;;;-10.20;99.90;;;;;;5034621;27;20673;-70
2022/12/19 06:08:18;;;;;;;45.43;13.87;;;-10.10;99.90;;;;;;5039623;27;20615;-70
2022/12/19 06:11:07;;;;;;;56.00;15.60;;;-10.20;99.90;;;;;;5041947;27;20640;-69
2022/12/19 06:13:54;;;;;;;84.27;18.70;;;-10.20;99.90;;;;;;5041925;27;20812;-69
2022/12/19 06:16:41;;;;;;;417.93;60.10;;;-10.20;99.90;;;;;;5045174;27;20631;-68
2022/12/19 06:19:29;;;;;;;84.93;21.60;;;-10.10;99.90;;;;;;5037746;27;21292;-69
2022/12/19 06:22:16;;;;;;;56.67;15.67;;;-10.10;99.90;;;;;;5041769;27;20761;-70
2022/12/19 06:25:04;;;;;;;47.87;14.33;;;-10.10;99.90;;;;;;5042675;27;20665;-69
2022/12/19 06:27:52;;;;;;;60.33;18.07;;;-10.00;99.90;;;;;;5043292;27;21238;-69
2022/12/19 06:30:40;;;;;;;65.10;20.80;;;-9.80;99.90;;;;;;5037227;27;20712;-69
2022/12/19 06:33:27;;;;;;;51.23;16.23;;;-9.90;99.90;;;;;;5039984;27;20620;-69
2022/12/19 06:36:16;;;;;;;49.53;14.83;;;-9.90;99.90;;;;;;5043444;27;20620;-69
2022/12/19 06:39:03;;;;;;;70.83;16.80;;;-9.90;99.90;;;;;;5037564;27;20632;-69
2022/12/19 06:45:02;;;;;;;90.67;26.17;;;-9.90;99.90;;;;;;5032096;27;21077;-69
2022/12/19 06:47:49;;;;;;;102.00;30.87;;;-9.90;99.90;;;;;;5047031;27;20619;-69
2022/12/19 06:50:36;;;;;;;89.43;25.90;;;-9.90;99.90;;;;;;5046788;27;20710;-69
2022/12/19 06:53:23;;;;;;;65.43;20.53;;;-9.90;99.90;;;;;;5058160;27;20743;-69
2022/12/19 06:56:11;;;;;;;75.17;23.53;;;-9.80;99.90;;;;;;5039546;27;20983;-70
2022/12/19 06:58:58;;;;;;;120.20;31.20;;;-9.80;99.90;;;;;;5047549;27;20788;-71
2022/12/19 07:01:53;;;;;;;220.33;41.07;;;-9.80;99.90;;;;;;5048605;27;20624;-69
2022/12/19 07:04:41;;;;;;;374.47;60.80;;;-9.70;99.90;;;;;;5041611;27;21040;-69
2022/12/19 07:07:28;;;;;;;206.70;44.90;;;-9.70;99.90;;;;;;5044587;27;20703;-69
2022/12/19 07:10:15;;;;;;;135.43;38.47;;;-9.70;99.90;;;;;;5056609;27;21202;-69
2022/12/19 07:13:03;;;;;;;82.13;25.97;;;-9.50;99.90;;;;;;5029504;27;20746;-70
2022/12/19 07:15:50;;;;;;;82.23;25.17;;;-9.40;99.90;;;;;;5045153;27;20719;-68
2022/12/19 07:18:39;;;;;;;94.60;25.10;;;-9.40;99.90;;;;;;5039607;27;20707;-69
2022/12/19 07:21:26;;;;;;;64.20;19.73;;;-9.40;99.90;;;;;;5039801;28;20792;-69
2022/12/19 07:24:14;;;;;;;82.43;22.97;;;-9.40;99.90;;;;;;5038865;27;20647;-69
2022/12/19 07:27:02;;;;;;;67.83;21.57;;;-9.30;99.90;;;;;;5045758;27;20631;-70
2022/12/19 07:29:49;;;;;;;74.53;21.60;;;-9.50;99.90;;;;;;5035022;27;20636;-69
2022/12/19 07:32:36;;;;;;;69.97;22.77;;;-9.50;99.90;;;;;;5040973;27;20703;-68
2022/12/19 07:35:25;;;;;;;127.80;37.87;;;-9.50;99.90;;;;;;5051285;27;20685;-70
2022/12/19 07:38:12;;;;;;;194.43;52.07;;;-9.60;99.90;;;;;;5061922;27;20706;-69
2022/12/19 07:41:01;;;;;;;157.00;44.20;;;-9.80;99.90;;;;;;5056299;27;20624;-69
2022/12/19 07:43:48;;;;;;;149.37;45.47;;;-9.90;99.90;;;;;;5056277;27;20655;-70
2022/12/19 07:46:35;;;;;;;138.43;40.57;;;-9.80;99.90;;;;;;5055485;27;20652;-69
2022/12/19 07:49:22;;;;;;;130.10;38.67;;;-9.70;99.90;;;;;;5040855;27;20710;-69
2022/12/19 07:52:11;;;;;;;96.67;30.67;;;-9.40;99.90;;;;;;5035081;27;20647;-70
2022/12/19 07:54:58;;;;;;;91.70;29.73;;;-9.10;99.90;;;;;;5043302;27;20925;-69
2022/12/19 07:57:45;;;;;;;90.53;27.63;;;-8.90;99.90;;;;;;5058840;27;20990;-69
2022/12/19 08:00:32;;;;;;;94.23;29.33;;;-8.60;99.90;;;;;;5036062;27;20608;-69
2022/12/19 08:03:20;;;;;;;148.40;37.50;;;-8.40;99.90;;;;;;5054873;27;21125;-67
2022/12/19 08:06:07;;;;;;;136.10;37.57;;;-8.20;99.90;;;;;;5101185;27;20684;-67
2022/12/19 08:08:55;;;;;;;85.10;25.67;;;-8.20;99.90;;;;;;5042399;27;20829;-67
2022/12/19 08:11:43;;;;;;;103.97;30.27;;;-8.00;99.90;;;;;;5062468;27;20679;-67
2022/12/19 08:14:30;;;;;;;109.50;31.67;;;-7.70;99.90;;;;;;5062689;27;20719;-68
2022/12/19 08:17:17;;;;;;;96.73;28.83;;;-7.50;99.90;;;;;;5047375;27;20672;-68
2022/12/19 08:20:05;;;;;;;86.77;28.07;;;-7.20;99.90;;;;;;5044116;27;20619;-68
2022/12/19 08:22:53;;;;;;;94.37;30.37;;;-6.90;99.90;;;;;;5037545;27;20652;-68
2022/12/19 08:25:41;;;;;;;86.37;29.57;;;-6.30;99.90;;;;;;5033930;27;22098;-69
2022/12/19 08:28:28;;;;;;;81.43;24.70;;;-5.50;99.90;;;;;;5041170;27;20260;-69
2022/12/19 08:31:16;;;;;;;77.70;24.87;;;-4.80;99.90;;;;;;5045641;27;20249;-69
2022/12/19 08:34:04;;;;;;;65.70;22.27;;;-4.50;99.90;;;;;;5050507;27;20228;-68
2022/12/19 08:36:51;;;;;;;72.33;23.63;;;-4.40;99.90;;;;;;5043038;27;20209;-69
2022/12/19 08:39:38;;;;;;;82.87;24.23;;;-3.90;99.90;;;;;;5045674;27;20287;-69
2022/12/19 08:42:26;;;;;;;71.50;23.57;;;-3.70;99.90;;;;;;5040859;27;20244;-69
2022/12/19 08:45:14;;;;;;;72.73;25.60;;;-3.20;99.90;;;;;;5046198;27;20323;-69
2022/12/19 08:48:01;;;;;;;64.00;23.40;;;-2.60;99.90;;;;;;5044063;27;20240;-70
2022/12/19 08:50:51;;;;;;;60.73;22.80;;;-2.00;99.90;;;;;;5041607;27;20300;-69
2022/12/19 08:53:39;;;;;;;68.63;23.63;;;-1.50;99.90;;;;;;5045762;27;20344;-69
2022/12/19 08:56:27;;;;;;;64.47;22.60;;;-1.30;99.90;;;;;;5041687;27;20208;-69
2022/12/19 08:59:15;;;;;;;62.93;23.00;;;-0.80;99.90;;;;;;5041184;27;20197;-69
2022/12/19 09:02:02;;;;;;;64.30;22.60;;;0.10;99.90;;;;;;5048028;27;20209;-70
2022/12/19 09:04:50;;;;;;;63.80;25.07;;;1.00;99.90;;;;;;5046968;27;20666;-70
2022/12/19 09:07:38;;;;;;;56.57;21.83;;;1.90;99.90;;;;;;5044162;27;20206;-71
2022/12/19 09:10:26;;;;;;;63.07;24.60;;;2.60;99.30;;;;;;5038734;27;20283;-71
2022/12/19 09:13:13;;;;;;;53.97;22.30;;;3.20;97.00;;;;;;5045533;27;20646;-70
2022/12/19 09:16:02;;;;;;;54.27;22.80;;;4.00;90.70;;;;;;5041596;28;20425;-70
2022/12/19 09:18:50;;;;;;;62.00;28.17;;;4.10;88.40;;;;;;5048157;27;20217;-71
2022/12/19 09:21:38;;;;;;;70.33;32.10;;;4.30;73.90;;;;;;5042609;28;20251;-71
2022/12/19 09:24:25;;;;;;;49.73;23.13;;;4.60;80.40;;;;;;5028086;28;20382;-70
2022/12/19 09:27:12;;;;;;;61.93;27.37;;;5.10;72.00;;;;;;5052418;27;20560;-70
2022/12/19 09:29:59;;;;;;;66.43;27.50;;;5.10;63.20;;;;;;5041497;27;20242;-70
2022/12/19 09:32:48;;;;;;;125.00;55.60;;;6.00;62.40;;;;;;5040044;27;20208;-70
2022/12/19 09:35:35;;;;;;;155.03;69.20;;;6.50;60.30;;;;;;5044850;27;20343;-71
2022/12/19 09:38:23;;;;;;;152.90;71.37;;;6.70;57.90;;;;;;5037188;28;20213;-70
2022/12/19 09:41:24;;;;;;;156.37;73.10;;;7.60;52.00;;;;;;5048304;27;20197;-69
2022/12/19 09:44:17;;;;;;;174.47;82.27;;;7.30;49.70;;;;;;5041172;27;20212;-69
2022/12/19 09:47:05;;;;;;;114.30;53.50;;;7.40;48.30;;;;;;5043467;27;20209;-68
2022/12/19 09:49:54;;;;;;;126.93;58.60;;;7.10;47.40;;;;;;5072080;27;20204;-69
2022/12/19 09:52:42;;;;;;;94.10;45.03;;;6.60;47.20;;;;;;5050290;27;20227;-68
2022/12/19 09:55:31;;;;;;;100.17;43.53;;;6.70;49.00;;;;;;5040749;27;20231;-67
2022/12/19 09:58:29;;;;;;;78.80;35.40;;;6.50;47.10;;;;;;5060843;27;20294;-68
2022/12/19 10:01:17;;;;;;;83.43;35.17;;;6.00;46.40;;;;;;5043658;28;20551;-66
2022/12/19 10:04:08;;;;;;;80.53;35.63;;;5.00;48.90;;;;;;5042732;27;20221;-67
2022/12/19 10:06:57;;;;;;;88.63;36.60;;;4.80;49.40;;;;;;5039801;27;20747;-68
2022/12/19 10:09:44;;;;;;;87.37;38.73;;;4.80;50.60;;;;;;5062031;27;20679;-67
2022/12/19 10:12:42;;;;;;;97.20;39.47;;;5.20;50.50;;;;;;5053499;27;20295;-67
2022/12/19 10:15:44;;;;;;;97.97;40.17;;;5.40;50.30;;;;;;5054898;27;20198;-67
2022/12/19 10:18:38;;;;;;;96.00;39.40;;;5.90;49.70;;;;;;5033518;27;20747;-67
2022/12/19 10:21:29;;;;;;;93.93;39.33;;;5.50;49.90;;;;;;5075285;27;20213;-67
2022/12/19 10:24:26;;;;;;;85.60;38.20;;;5.40;49.80;;;;;;5072151;27;20563;-67
2022/12/19 10:27:15;;;;;;;80.30;35.80;;;5.20;49.50;;;;;;5057691;27;20579;-68
2022/12/19 10:30:08;;;;;;;79.70;34.80;;;6.10;50.70;;;;;;5039971;27;20237;-67
2022/12/19 10:33:00;;;;;;;86.20;37.63;;;6.80;48.00;;;;;;5065689;27;20202;-67
2022/12/19 10:35:51;;;;;;;81.03;37.30;;;7.30;47.10;;;;;;5066359;27;20297;-67
2022/12/19 10:38:40;;;;;;;80.23;36.37;;;7.60;46.10;;;;;;5065950;27;20337;-68
2022/12/19 10:41:30;;;;;;;80.40;35.43;;;7.90;46.00;;;;;;5039296;27;20271;-69
2022/12/19 10:44:17;;;;;;;65.97;31.17;;;8.90;43.70;;;;;;5053966;27;20278;-68
2022/12/19 10:47:04;;;;;;;63.93;30.30;;;9.10;42.50;;;;;;5038002;28;20218;-68
2022/12/19 10:49:51;;;;;;;64.93;30.40;;;9.50;41.40;;;;;;5054710;27;20205;-69
2022/12/19 10:52:51;;;;;;;61.87;29.83;;;9.70;42.20;;;;;;5042001;27;20201;-68
2022/12/19 10:55:42;;;;;;;59.43;29.87;;;9.80;41.40;;;;;;5038237;28;20198;-70
2022/12/19 10:58:34;;;;;;;55.50;27.03;;;9.80;41.40;;;;;;5047709;27;20201;-68
2022/12/19 11:01:22;;;;;;;53.50;25.87;;;10.50;41.30;;;;;;5045930;27;20232;-68
2022/12/19 11:04:24;;;;;;;58.80;28.70;;;9.90;39.80;;;;;;5048386;27;20228;-67
2022/12/19 11:07:18;;;;;;;62.90;30.57;;;9.80;40.90;;;;;;5042371;27;20246;-67
2022/12/19 11:10:33;;;;;;;64.83;27.87;;;9.60;39.70;;;;;;5042461;28;20201;-67
2022/12/19 11:13:21;;;;;;;58.40;25.20;;;9.90;40.20;;;;;;5041605;27;20289;-67
2022/12/19 11:16:10;;;;;;;69.77;30.93;;;10.00;38.60;;;;;;5069272;27;20201;-66
2022/12/19 11:18:57;;;;;;;70.60;34.33;;;10.10;38.60;;;;;;5046621;27;20283;-66
2022/12/19 11:21:44;;;;;;;62.07;29.27;;;9.70;38.90;;;;;;5048596;27;20225;-68
2022/12/19 11:24:35;;;;;;;60.10;30.07;;;9.60;40.10;;;;;;5035664;27;20312;-65
2022/12/19 11:27:36;;;;;;;57.57;27.93;;;9.70;40.90;;;;;;5043897;27;20672;-67
2022/12/19 11:30:24;;;;;;;55.20;26.00;;;9.50;40.30;;;;;;5046485;27;20215;-66
2022/12/19 11:33:14;;;;;;;60.97;27.07;;;9.50;41.00;;;;;;5035552;28;20714;-66
2022/12/19 11:36:02;;;;;;;57.87;28.53;;;9.90;41.10;;;;;;5040590;27;20208;-67
2022/12/19 11:38:52;;;;;;;53.73;25.10;;;9.90;40.40;;;;;;5045447;27;20216;-66
2022/12/19 11:41:41;;;;;;;55.17;26.87;;;10.60;39.00;;;;;;5036537;27;20660;-67
2022/12/19 11:44:30;;;;;;;57.27;27.70;;;10.40;36.90;;;;;;5038684;27;20217;-66
2022/12/19 11:47:22;;;;;;;60.17;28.67;;;10.40;37.80;;;;;;5038789;27;20233;-66
2022/12/19 11:50:15;;;;;;;70.77;32.60;;;10.00;37.70;;;;;;5059270;27;20213;-67
2022/12/19 11:53:04;;;;;;;62.77;29.70;;;10.00;40.00;;;;;;5043645;27;20237;-67
2022/12/19 11:55:52;;;;;;;58.60;27.57;;;10.20;39.10;;;;;;5048925;27;20201;-66
2022/12/19 11:58:40;;;;;;;63.47;29.70;;;10.50;37.30;;;;;;5036773;28;20240;-67
2022/12/19 12:01:42;;;;;;;58.93;28.43;;;10.30;37.50;;;;;;5066038;27;20198;-66
2022/12/19 12:04:50;;;;;;;55.20;26.53;;;11.50;37.70;;;;;;5035348;27;20632;-66
2022/12/19 12:07:39;;;;;;;51.50;25.30;;;10.80;36.10;;;;;;5036500;27;20269;-67
2022/12/19 12:10:26;;;;;;;48.40;24.80;;;11.00;36.40;;;;;;5038343;27;20217;-66
2022/12/19 12:13:17;;;;;;;68.83;32.57;;;10.80;35.20;;;;;;5037019;28;20301;-65
2022/12/19 12:16:07;;;;;;;52.67;26.90;;;11.20;36.00;;;;;;5046519;27;20346;-65
2022/12/19 12:19:01;;;;;;;67.27;30.90;;;11.70;35.30;;;;;;5058604;27;20596;-67
2022/12/19 12:21:51;;;;;;;49.93;23.97;;;11.80;34.60;;;;;;5044529;27;20516;-66
2022/12/19 12:24:44;;;;;;;39.27;19.43;;;12.20;35.30;;;;;;5035618;27;20307;-66
2022/12/19 12:27:38;;;;;;;56.60;27.23;;;11.20;35.60;;;;;;5065572;27;20211;-66
2022/12/19 12:30:25;;;;;;;80.23;35.87;;;11.50;35.50;;;;;;5050508;27;20232;-65
2022/12/19 12:33:16;;;;;;;90.13;39.20;;;12.20;34.80;;;;;;5046052;27;20212;-65
2022/12/19 12:36:07;;;;;;;74.83;34.37;;;12.20;34.00;;;;;;5041159;27;20267;-66
2022/12/19 12:39:02;;;;;;;74.87;34.07;;;12.20;33.60;;;;;;5051788;27;20235;-65
2022/12/19 12:42:06;;;;;;;81.30;36.57;;;11.20;34.80;;;;;;5067794;27;20219;-65
2022/12/19 12:44:54;;;;;;;58.57;27.63;;;11.20;35.00;;;;;;5044944;27;20249;-66
2022/12/19 12:47:42;;;;;;;76.50;29.83;;;11.00;34.70;;;;;;5036463;28;20208;-65
2022/12/19 12:50:29;;;;;;;62.80;24.53;;;10.90;35.70;;;;;;5043540;27;20205;-65
2022/12/19 12:53:16;;;;;;;62.83;24.00;;;10.80;35.50;;;;;;5030740;27;20244;-65
2022/12/19 12:56:04;;;;;;;55.87;23.57;;;10.10;35.30;;;;;;5040464;28;20204;-66
2022/12/19 12:59:20;;;;;;;59.30;25.97;;;9.90;38.30;;;;;;5038878;28;20251;-65
2022/12/19 13:02:14;;;;;;;57.10;24.93;;;9.90;38.00;;;;;;5038162;27;20206;-65
2022/12/19 13:05:02;;;;;;;68.40;26.53;;;10.30;36.70;;;;;;5045212;27;20274;-65
2022/12/19 13:07:51;;;;;;;65.17;26.33;;;10.10;36.90;;;;;;5044832;27;20656;-64
2022/12/19 13:10:38;;;;;;;74.67;29.97;;;10.20;36.80;;;;;;5039441;27;20281;-64
2022/12/19 13:13:51;;;;;;;83.50;35.07;;;10.00;37.40;;;;;;5049652;27;20223;-66
2022/12/19 13:16:52;;;;;;;86.67;38.57;;;9.90;38.00;;;;;;5042153;27;20203;-65
2022/12/19 13:19:40;;;;;;;102.13;45.27;;;9.40;38.60;;;;;;5036986;27;20202;-64
2022/12/19 13:22:40;;;;;;;107.53;47.27;;;8.50;39.40;;;;;;5039558;28;20207;-65
2022/12/19 13:25:46;;;;;;;100.33;42.10;;;7.80;40.70;;;;;;5042069;28;20687;-65
2022/12/19 13:28:41;;;;;;;100.57;38.90;;;7.10;42.40;;;;;;5037734;27;20376;-65
2022/12/19 13:31:28;;;;;;;96.60;39.63;;;6.90;43.70;;;;;;5047616;27;20210;-65
2022/12/19 13:34:19;;;;;;;78.80;31.73;;;6.60;44.90;;;;;;5045408;27;20200;-65
2022/12/19 13:37:40;;;;;;;85.40;38.00;;;5.60;47.10;;;;;;5040715;27;20567;-64
2022/12/19 13:40:29;;;;;;;87.90;40.00;;;4.60;48.80;;;;;;5053626;27;20208;-64
2022/12/19 13:46:30;;;;;;;86.27;38.03;;;4.00;51.60;;;;;;5042014;28;20245;-64
2022/12/19 13:49:20;;;;;;;81.13;34.50;;;4.00;51.20;;;;;;5050570;27;20705;-64
2022/12/19 13:52:09;;;;;;;77.43;33.60;;;3.30;52.70;;;;;;5051940;27;20614;-65
2022/12/19 13:54:58;;;;;;;81.70;33.20;;;2.80;54.30;;;;;;5122143;27;20246;-64
2022/12/19 13:57:47;;;;;;;76.23;30.07;;;2.30;55.70;;;;;;5122916;27;20202;-65
2022/12/19 14:00:35;;;;;;;85.93;34.53;;;1.80;56.90;;;;;;5116844;27;20289;-64
2022/12/19 14:03:25;;;;;;;82.87;33.93;;;0.90;60.50;;;;;;5117759;27;20210;-64
2022/12/19 14:06:19;;;;;;;101.70;39.47;;;-0.20;66.80;;;;;;5117023;27;20294;-65
2022/12/19 14:09:07;;;;;;;109.93;43.50;;;-0.50;71.80;;;;;;5119009;27;20748;-64
2022/12/19 14:11:55;;;;;;;75.50;31.23;;;-0.70;77.60;;;;;;5121477;27;20283;-64
2022/12/19 14:17:55;;;;;;;77.80;30.97;;;-1.10;91.00;;;;;;5120845;27;20191;-65
2022/12/19 14:20:42;;;;;;;79.77;31.13;;;-1.40;93.00;;;;;;5117008;27;20286;-64
2022/12/19 14:23:31;;;;;;;81.03;29.43;;;-1.80;97.30;;;;;;5116069;27;20676;-65
2022/12/19 14:26:21;;;;;;;80.47;31.73;;;-2.30;99.90;;;;;;5121685;27;20618;-66
2022/12/19 14:29:12;;;;;;;85.53;29.80;;;-2.60;99.90;;;;;;5122576;27;20256;-64
2022/12/19 14:31:59;;;;;;;94.87;32.20;;;-2.90;99.90;;;;;;5122851;27;20221;-66
2022/12/19 14:34:47;;;;;;;87.03;30.63;;;-3.00;99.90;;;;;;5121910;27;20195;-66